ADDS METAR Data INFO
IDs: Format: Raw Decoded Include TAF

Data at: 0703 UTC 19 Oct 2017

K5M9 190655Z AUTO 21003KT 10SM CLR 11/09 A3019 RMK AO2 T01110090
K5M9 190635Z AUTO 20003KT 10SM CLR 11/09 A3019 RMK AO2 T01110091
K5M9 190615Z AUTO 19003KT 10SM CLR 11/09 A3019 RMK AO2 T01110090
K5M9 190555Z AUTO 19003KT 10SM CLR 11/09 A3019 RMK AO2 T01110090 10155 20102 402200065
K5M9 190535Z AUTO 19003KT 10SM CLR 10/09 A3019 RMK AO2 T01020093
K5M9 190515Z AUTO 19003KT 10SM CLR 11/09 A3019 RMK AO2 T01100089
K5M9 190455Z AUTO 00000KT 10SM CLR 11/09 A3019 RMK AO2 T01140090
K5M9 190435Z AUTO 00000KT 10SM CLR 12/09 A3020 RMK AO2 T01170088
K5M9 190415Z AUTO 23003KT 10SM CLR 13/09 A3020 RMK AO2 T01250086
K5M9 190355Z AUTO 23003KT 10SM CLR 13/09 A3019 RMK AO2 T01300086
K5M9 190335Z AUTO 19004KT 10SM CLR 12/09 A3019 RMK AO2 T01230087
K5M9 190315Z AUTO 19003KT 10SM CLR 13/09 A3019 RMK AO2 T01250085
K5M9 190255Z AUTO 20004KT 10SM CLR 13/08 A3019 RMK AO2 T01310084
K5M9 190235Z AUTO 00000KT 10SM CLR 12/09 A3019 RMK AO2 T01210085
K5M9 190215Z AUTO 20003KT 10SM CLR 13/08 A3020 RMK AO2 T01330084
K5M9 190155Z AUTO 21004KT 10SM CLR 15/09 A3019 RMK AO2 T01450085
K5M9 190135Z AUTO 17003KT 10SM CLR 13/09 A3019 RMK AO2 T01330086
K5M9 190115Z AUTO 20003KT 10SM CLR 14/09 A3020 RMK AO2 T01430085
K5M9 190055Z AUTO 17003KT 10SM CLR 14/09 A3019 RMK AO2 T01390087
K5M9 190035Z AUTO 00000KT 10SM CLR 15/09 A3020 RMK AO2 T01470086
K5M9 190015Z AUTO 00000KT 10SM CLR 15/09 A3019 RMK AO2 T01470090
K5M9 182355Z AUTO 18004KT 10SM CLR 16/09 A3019 RMK AO2 T01550090 10220 20155
K5M9 182335Z AUTO 17004KT 10SM CLR 16/09 A3019 RMK AO2 T01600091
K5M9 182315Z AUTO 16003KT 10SM CLR 17/09 A3019 RMK AO2 T01680093
K5M9 182255Z AUTO 17004KT 10SM CLR 18/10 A3019 RMK AO2 T01750095
K5M9 182235Z AUTO 19003KT 10SM CLR 19/09 A3019 RMK AO2 T01850091
K5M9 182215Z AUTO 18004KT 10SM CLR 19/09 A3019 RMK AO2 T01910085
K5M9 182155Z AUTO 18004KT 10SM CLR 20/08 A3019 RMK AO2 T01950081
K5M9 182135Z AUTO 17007KT 140V200 10SM CLR 21/08 A3019 RMK AO2 T02050083
K5M9 182115Z AUTO 20005KT 10SM CLR 21/09 A3019 RMK AO2 T02090085
K5M9 182055Z AUTO 17005KT 10SM CLR 21/08 A3019 RMK AO2 T02110084
K5M9 182035Z AUTO 18006KT 10SM CLR 21/09 A3019 RMK AO2 T02120087
K5M9 182015Z AUTO 20005KT 10SM CLR 22/08 A3020 RMK AO2 T02160081
K5M9 181955Z AUTO 18007KT 140V220 10SM CLR 22/08 A3020 RMK AO2 T02150080
K5M9 181935Z AUTO 15007G16KT 10SM CLR 22/09 A3020 RMK AO2 T02170090
K5M9 181915Z AUTO 20006KT 10SM CLR 22/08 A3021 RMK AO2 T02190084
K5M9 181855Z AUTO 22004KT 10SM CLR 21/09 A3021 RMK AO2 T02140086
K5M9 181835Z AUTO 15005KT 10SM CLR 21/09 A3022 RMK AO2 T02110085
K5M9 181815Z AUTO 21004KT 10SM CLR 21/08 A3024 RMK AO2 T02100078
K5M9 181755Z AUTO 24009KT 10SM CLR 21/08 A3024 RMK AO2 T02060080 10208 20069
K5M9 181735Z AUTO 24009KT 10SM CLR 20/07 A3026 RMK AO2 T02030074
K5M9 181715Z AUTO 18006KT 10SM CLR 20/08 A3027 RMK AO2 T02020083
K5M9 181655Z AUTO 21006KT 10SM CLR 19/08 A3027 RMK AO2 T01930084
K5M9 181635Z AUTO 23006KT 10SM CLR 19/09 A3029 RMK AO2 T01940086
K5M9 181615Z AUTO 20008KT 160V250 10SM CLR 19/08 A3029 RMK AO2 T01860084
K5M9 181555Z AUTO 20007KT 170V240 10SM CLR 18/09 A3029 RMK AO2 T01810086
K5M9 181535Z AUTO 20006KT 10SM CLR 18/09 A3030 RMK AO2 T01750088
K5M9 181515Z AUTO 22005KT 10SM CLR 17/09 A3030 RMK AO2 T01650087
K5M9 181455Z AUTO 20004KT 10SM CLR 15/09 A3030 RMK AO2 T01520087
K5M9 181435Z AUTO 21003KT 10SM CLR 14/09 A3030 RMK AO2 T01430089
K5M9 181415Z AUTO 20004KT 10SM CLR 14/09 A3030 RMK AO2 T01370087
K5M9 181355Z AUTO 00000KT 10SM CLR 13/09 A3029 RMK AO2 T01270086
K5M9 181335Z AUTO 00000KT 10SM CLR 12/08 A3029 RMK AO2 T01170081
K5M9 181315Z AUTO 00000KT 10SM CLR 10/08 A3028 RMK AO2 T01000076
K5M9 181255Z AUTO 00000KT 10SM CLR 09/07 A3027 RMK AO2 T00870074
K5M9 181235Z AUTO 19003KT 10SM CLR 07/07 A3027 RMK AO2 T00720071
K5M9 181215Z AUTO 00000KT 10SM CLR 07/07 A3026 RMK AO2 T00710065
K5M9 181155Z AUTO 19003KT 10SM CLR 07/06 A3026 RMK AO2 T00730059 10090 20065
K5M9 181135Z AUTO 00000KT 10SM CLR 07/06 A3026 RMK AO2 T00700058
K5M9 181115Z AUTO 18003KT 10SM CLR 07/06 A3026 RMK AO2 T00720056
K5M9 181055Z AUTO 17003KT 10SM CLR 08/06 A3026 RMK AO2 T00760055
K5M9 181035Z AUTO 17003KT 10SM CLR 08/05 A3025 RMK AO2 T00760053
K5M9 181015Z AUTO 17003KT 10SM CLR 08/05 A3025 RMK AO2 T00810051
K5M9 180955Z AUTO 18003KT 10SM CLR 07/05 A3024 RMK AO2 T00740052
K5M9 180935Z AUTO 00000KT 10SM CLR 08/05 A3024 RMK AO2 T00760048
K5M9 180915Z AUTO 00000KT 10SM CLR 07/05 A3024 RMK AO2 T00720051
K5M9 180855Z AUTO 18003KT 10SM CLR 07/05 A3024 RMK AO2 T00730049
K5M9 180835Z AUTO 18003KT 10SM CLR 07/05 A3024 RMK AO2 T00730050
K5M9 180815Z AUTO 18003KT 10SM CLR 08/05 A3024 RMK AO2 T00830047
K5M9 180755Z AUTO 18003KT 10SM CLR 09/05 A3024 RMK AO2 T00860048
K5M9 180735Z AUTO 18003KT 10SM CLR 08/05 A3024 RMK AO2 T00800052
K5M9 180715Z AUTO 18003KT 10SM CLR 08/06 A3024 RMK AO2 T00760060
K5M9 180655Z AUTO 00000KT 10SM CLR 08/07 A3024 RMK AO2 T00790066
K5M9 180635Z AUTO 00000KT 10SM CLR 08/07 A3024 RMK AO2 T00750070
K5M9 180615Z AUTO 00000KT 10SM CLR 07/07 A3024 RMK AO2 T00700070
K5M9 180555Z AUTO 00000KT 10SM CLR 07/07 A3025 RMK AO2 T00650065 10123 20065 401980042
K5M9 180535Z AUTO 00000KT 10SM CLR 07/07 A3025 RMK AO2 T00700070
K5M9 180515Z AUTO 00000KT 10SM CLR 07/07 A3025 RMK AO2 T00700070
K5M9 180455Z AUTO 00000KT 10SM CLR 08/07 A3025 RMK AO2 T00790074
K5M9 180435Z AUTO 00000KT 10SM CLR 08/08 A3025 RMK AO2 T00750075
K5M9 180415Z AUTO 00000KT 10SM CLR 08/07 A3025 RMK AO2 T00800071
K5M9 180355Z AUTO 00000KT 10SM CLR 08/07 A3026 RMK AO2 T00770074
K5M9 180335Z AUTO 00000KT 10SM CLR 08/07 A3026 RMK AO2 T00800067
K5M9 180315Z AUTO 00000KT 10SM CLR 08/07 A3026 RMK AO2 T00840065
K5M9 180255Z AUTO 00000KT 10SM CLR 09/07 A3026 RMK AO2 T00860065
K5M9 180235Z AUTO 00000KT 10SM CLR 09/06 A3026 RMK AO2 T00910061
K5M9 180215Z AUTO 00000KT 10SM CLR 10/06 A3026 RMK AO2 T00960061
K5M9 180155Z AUTO 00000KT 10SM CLR 09/07 A3025 RMK AO2 T00900066
K5M9 180135Z AUTO 00000KT 10SM CLR 09/06 A3025 RMK AO2 T00930063
K5M9 180115Z AUTO 00000KT 10SM CLR 10/06 A3025 RMK AO2 T00970063
K5M9 180055Z AUTO 00000KT 10SM CLR 11/06 A3025 RMK AO2 T01110061
K5M9 180035Z AUTO 00000KT 10SM CLR 11/06 A3025 RMK AO2 T01130061
K5M9 180015Z AUTO 00000KT 10SM CLR 12/06 A3025 RMK AO2 T01210057
K5M9 172355Z AUTO 00000KT 10SM CLR 13/06 A3024 RMK AO2 T01270059 10198 20127
K5M9 172335Z AUTO 00000KT 10SM CLR 14/05 A3024 RMK AO2 T01410049
K5M9 172315Z AUTO 22003KT 10SM CLR 15/06 A3024 RMK AO2 T01490055
K5M9 172255Z AUTO 00000KT 10SM CLR 16/06 A3024 RMK AO2 T01560056
K5M9 172235Z AUTO 00000KT 10SM CLR 17/06 A3025 RMK AO2 T01670061
K5M9 172215Z AUTO 00000KT 10SM CLR 17/06 A3024 RMK AO2 T01720063
K5M9 172155Z AUTO 00000KT 10SM CLR 18/05 A3025 RMK AO2 T01760053
K5M9 172135Z AUTO 00000KT 10SM CLR 18/04 A3025 RMK AO2 T01800041
K5M9 172115Z AUTO 00000KT 10SM CLR 18/05 A3025 RMK AO2 T01810045
K5M9 172055Z AUTO 18003KT 10SM CLR 19/05 A3025 RMK AO2 T01940047
K5M9 172035Z AUTO 00000KT 10SM CLR 19/05 A3026 RMK AO2 T01870045
K5M9 172015Z AUTO 14004KT 10SM CLR 20/05 A3026 RMK AO2 T01960051
K5M9 171955Z AUTO 16004KT 10SM CLR 19/05 A3027 RMK AO2 T01870046
K5M9 171935Z AUTO 00000KT 10SM CLR 19/04 A3027 RMK AO2 T01890041
K5M9 171915Z AUTO 15004KT 10SM CLR 19/05 A3028 RMK AO2 T01860048